Time;durP1;ratioP1;P1;durP2;ratioP2;P2;SDS_P1;SDS_P2;PMS_P1;PMS_P2;Temp;Humidity;BMP_temperature;BMP_pressure;BME280_temperature;BME280_humidity;BME280_pressure;Samples;Min_cycle;Max_cycle;Signal;HPM_P1;HPM_P2
2021/07/05 00:07:15;;;;;;;2.45;1.33;;;;;;;15.92;85.83;100037.25;20660681;28;20053;-69
2021/07/05 00:17:17;;;;;;;3.38;1.50;;;;;;;15.83;86.47;100030.56;20660509;28;20101;-68
2021/07/05 00:27:18;;;;;;;3.60;1.20;;;;;;;15.87;86.08;100020.75;20659690;28;20050;-69
2021/07/05 00:37:20;;;;;;;3.70;1.20;;;;;;;15.82;86.43;100017.44;20658423;28;20046;-69
2021/07/05 00:47:22;;;;;;;2.75;1.65;;;;;;;15.83;86.50;100022.66;20658524;28;20042;-70
2021/07/05 00:57:25;;;;;;;4.95;1.52;;;;;;;15.87;86.52;100010.19;20657598;28;20104;-69
2021/07/05 01:07:26;;;;;;;3.65;1.45;;;;;;;15.85;86.93;100006.72;20638660;28;20492;-69
2021/07/05 01:17:28;;;;;;;3.78;1.40;;;;;;;15.99;86.54;99999.06;20655622;28;20488;-69
2021/07/05 01:27:30;;;;;;;2.20;1.20;;;;;;;16.13;86.24;99991.38;20656261;28;20074;-69
2021/07/05 01:37:32;;;;;;;5.05;1.52;;;;;;;16.11;85.69;99987.97;20655258;28;20093;-69
2021/07/05 01:47:34;;;;;;;5.47;1.58;;;;;;;16.06;85.55;99981.19;20655799;28;20043;-69
2021/07/05 01:57:37;;;;;;;2.75;1.65;;;;;;;15.83;86.08;99961.94;20655029;28;20054;-70
2021/07/05 02:07:40;;;;;;;4.95;1.67;;;;;;;15.72;86.54;99984.47;20654570;28;20050;-69
2021/07/05 02:17:43;;;;;;;3.40;1.60;;;;;;;15.76;86.37;99986.91;20654476;28;20484;-69
2021/07/05 02:27:46;;;;;;;5.55;2.08;;;;;;;16.00;86.22;99989.34;20655156;28;20097;-69
2021/07/05 02:37:50;;;;;;;3.85;1.50;;;;;;;16.17;85.52;99981.53;20667661;28;20042;-69
2021/07/05 02:47:57;;;;;;;3.38;1.63;;;;;;;16.34;85.15;99970.22;20667931;28;20062;-69
2021/07/05 02:57:58;;;;;;;5.32;1.90;;;;;;;16.41;85.42;99974.28;20665881;28;20656;-69
2021/07/05 03:08:00;;;;;;;4.45;2.10;;;;;;;16.42;86.01;99955.69;20664400;28;20195;-70
2021/07/05 03:18:04;;;;;;;4.68;2.13;;;;;;;16.47;85.64;99960.75;20664631;28;20050;-69
2021/07/05 03:28:09;;;;;;;5.20;2.70;;;;;;;16.44;86.55;99937.16;20664603;28;20054;-69
2021/07/05 03:38:11;;;;;;;6.70;3.20;;;;;;;16.45;86.75;99956.50;20663700;28;20062;-69
2021/07/05 03:48:13;;;;;;;7.25;2.90;;;;;;;16.52;86.27;99981.69;20662584;28;20043;-69
2021/07/05 03:58:16;;;;;;;6.45;2.88;;;;;;;16.51;86.74;99970.25;20661326;28;20077;-69
2021/07/05 04:08:21;;;;;;;5.63;2.40;;;;;;;16.58;86.33;99981.44;20660530;28;20050;-69
2021/07/05 04:18:24;;;;;;;11.60;3.50;;;;;;;16.65;86.41;99982.84;20660746;28;20054;-69
2021/07/05 04:28:25;;;;;;;6.82;2.45;;;;;;;16.73;86.33;99977.22;20660376;28;20308;-69
2021/07/05 04:38:27;;;;;;;7.60;2.67;;;;;;;16.80;86.23;99984.78;20658987;28;20101;-69
2021/07/05 04:48:30;;;;;;;7.53;2.20;;;;;;;16.86;85.94;99988.91;20658244;28;20423;-70
2021/07/05 04:58:31;;;;;;;6.03;2.20;;;;;;;16.80;85.04;100011.22;20658727;28;20046;-70
2021/07/05 05:08:34;;;;;;;8.23;2.13;;;;;;;16.87;84.77;100015.31;20656941;28;20046;-69
2021/07/05 05:18:36;;;;;;;4.20;2.00;;;;;;;16.91;82.69;100008.06;20657725;28;20120;-70
2021/07/05 05:28:41;;;;;;;5.07;1.92;;;;;;;16.98;82.45;100009.47;20658115;28;20434;-69
2021/07/05 05:38:48;;;;;;;4.10;1.80;;;;;;;17.05;83.13;100015.31;20653609;28;20054;-69
2021/07/05 05:48:49;;;;;;;4.93;2.10;;;;;;;17.12;82.84;100020.25;20656312;28;20101;-69
2021/07/05 05:58:51;;;;;;;4.53;1.85;;;;;;;17.16;82.73;100011.25;20655525;28;20050;-69
2021/07/05 06:08:53;;;;;;;5.22;1.90;;;;;;;17.36;83.36;100017.34;20665597;28;20082;-69
2021/07/05 06:18:55;;;;;;;6.80;2.20;;;;;;;17.43;83.66;100018.72;20669517;28;20050;-69
2021/07/05 06:28:57;;;;;;;5.13;2.30;;;;;;;17.42;85.08;100009.06;20669486;28;20121;-69
2021/07/05 06:38:58;;;;;;;6.43;2.40;;;;;;;17.58;83.47;100002.09;20668199;28;20042;-69
2021/07/05 06:49:00;;;;;;;8.32;2.45;;;;;;;17.74;81.84;99993.38;20668486;28;20055;-69
2021/07/05 06:59:03;;;;;;;5.00;2.13;;;;;;;17.96;82.03;100001.91;20667456;28;20046;-69
2021/07/05 07:09:05;;;;;;;5.78;2.10;;;;;;;18.18;80.62;99981.28;20663147;28;20133;-69
2021/07/05 07:19:16;;;;;;;6.18;2.10;;;;;;;18.94;79.26;99980.69;20665567;28;20054;-69
2021/07/05 07:29:18;;;;;;;3.80;1.58;;;;;;;18.94;78.55;99988.66;20666516;28;20042;-69
2021/07/05 07:39:25;;;;;;;4.97;1.80;;;;;;;18.88;78.23;99976.59;20664648;28;20574;-69
2021/07/05 07:49:29;;;;;;;4.45;1.67;;;;;;;19.30;76.25;99971.53;20663291;28;20047;-69
2021/07/05 07:59:31;;;;;;;3.83;1.63;;;;;;;19.58;75.75;99966.28;20646398;28;20104;-69
2021/07/05 08:09:34;;;;;;;6.57;1.50;;;;;;;19.20;75.41;99974.72;20662050;28;20294;-69
2021/07/05 08:19:36;;;;;;;6.20;1.95;;;;;;;19.41;76.08;99963.81;20661564;28;20082;-69
2021/07/05 08:29:37;;;;;;;3.97;1.40;;;;;;;19.43;75.03;99960.09;20660896;28;20050;-70
2021/07/05 08:39:39;;;;;;;4.55;1.50;;;;;;;19.70;73.54;99954.97;20659758;28;20058;-70
2021/07/05 08:49:41;;;;;;;4.05;1.40;;;;;;;19.56;71.78;99967.34;20660311;28;20042;-69
2021/07/05 08:59:43;;;;;;;3.80;1.73;;;;;;;19.68;69.55;99956.84;20658856;28;20050;-69
2021/07/05 09:09:57;;;;;;;3.58;1.30;;;;;;;19.56;70.01;99956.72;20657796;28;20042;-69
2021/07/05 09:20:19;;;;;;;3.13;1.30;;;;;;;20.31;69.01;99944.13;20649245;28;20050;-69
2021/07/05 09:30:21;;;;;;;4.40;1.40;;;;;;;20.73;67.86;99930.78;20651436;28;20042;-69
2021/07/05 09:40:28;;;;;;;2.75;1.27;;;;;;;20.48;68.22;99922.69;20737782;28;20100;-69
2021/07/05 09:50:33;;;;;;;2.50;1.00;;;;;;;20.40;67.17;99923.13;20746535;28;20057;-69
2021/07/05 10:00:38;;;;;;;2.42;0.88;;;;;;;20.39;68.36;99928.56;20733686;28;20053;-69
2021/07/05 10:10:42;;;;;;;3.22;0.80;;;;;;;20.92;66.88;99908.28;20743789;28;20058;-68
2021/07/05 10:20:46;;;;;;;5.03;0.93;;;;;;;21.37;65.37;99909.72;20740641;28;20101;-69
2021/07/05 10:30:50;;;;;;;2.23;0.80;;;;;;;21.62;63.67;99902.69;20736579;28;20050;-69
2021/07/05 10:40:55;;;;;;;2.10;0.90;;;;;;;21.64;63.31;99896.28;20664732;28;20046;-69
2021/07/05 10:51:01;;;;;;;1.70;0.68;;;;;;;21.77;63.21;99886.47;20664376;28;20046;-69
2021/07/05 11:01:06;;;;;;;2.65;0.73;;;;;;;21.85;62.99;99887.75;20664441;28;20046;-69
2021/07/05 11:11:11;;;;;;;1.45;0.55;;;;;;;22.24;61.99;99890.28;20663839;28;20085;-69
2021/07/05 11:21:24;;;;;;;1.63;0.60;;;;;;;21.73;63.92;99890.31;20663389;28;20582;-69
2021/07/05 11:31:26;;;;;;;2.83;0.63;;;;;;;21.83;64.38;99887.84;20672871;28;20046;-69
2021/07/05 11:41:28;;;;;;;2.65;0.70;;;;;;;22.02;66.08;99871.41;20742711;28;20069;-70
2021/07/05 11:51:49;;;;;;;2.38;0.65;;;;;;;22.27;64.04;99862.50;20742234;28;20069;-69
2021/07/05 12:01:56;;;;;;;1.10;0.60;;;;;;;22.82;62.17;99847.75;20725335;28;20062;-69
2021/07/05 12:12:07;;;;;;;2.85;0.70;;;;;;;22.88;60.86;99838.44;20658724;28;20472;-69
2021/07/05 12:22:13;;;;;;;1.05;0.50;;;;;;;23.06;59.69;99834.41;20658010;28;20439;-69
2021/07/05 12:32:31;;;;;;;2.65;0.60;;;;;;;22.94;60.13;99827.31;20657093;28;20054;-69
2021/07/05 12:42:45;;;;;;;2.65;0.60;;;;;;;22.48;60.82;99834.28;20655985;28;20420;-69
2021/07/05 12:53:07;;;;;;;2.83;0.77;;;;;;;22.28;61.45;99841.09;20655946;28;20058;-69
2021/07/05 13:03:12;;;;;;;1.70;0.60;;;;;;;22.78;60.15;99838.28;20653842;28;20293;-69
2021/07/05 13:13:15;;;;;;;;;;;;;;;23.56;57.71;99842.97;20653718;28;20547;-68
2021/07/05 13:23:17;;;;;;;1.88;0.70;;;;;;;22.57;62.41;99846.09;20653661;28;20766;-69
2021/07/05 13:33:31;;;;;;;1.98;0.75;;;;;;;22.63;67.66;99837.63;20679263;28;20049;-69
2021/07/05 13:43:33;;;;;;;;;;;;;;;22.64;65.14;99847.31;20730381;28;20104;-69
2021/07/05 13:53:38;;;;;;;4.28;0.93;;;;;;;22.57;66.01;99842.56;20733961;28;20371;-69
2021/07/05 14:03:40;;;;;;;3.95;0.80;;;;;;;23.30;63.22;99832.50;20733617;28;20061;-69
2021/07/05 14:13:44;;;;;;;2.45;1.00;;;;;;;23.31;63.22;99820.00;20732352;28;20397;-69
2021/07/05 14:23:46;;;;;;;1.87;0.87;;;;;;;22.86;64.22;99827.03;20733308;28;20495;-69
2021/07/05 14:33:48;;;;;;;1.95;0.70;;;;;;;22.17;64.65;99838.31;20748041;28;20096;-69
2021/07/05 14:43:50;;;;;;;2.72;0.88;;;;;;;22.24;63.96;99831.59;20746884;28;20483;-67
2021/07/05 14:53:52;;;;;;;1.42;0.75;;;;;;;22.57;62.77;99830.06;20746067;28;20080;-67
2021/07/05 15:03:54;;;;;;;1.70;0.90;;;;;;;23.55;61.31;99809.22;20744137;28;20041;-67
2021/07/05 15:13:55;;;;;;;2.55;0.80;;;;;;;24.19;58.68;99796.03;20743805;28;20513;-67
2021/07/05 15:23:57;;;;;;;1.90;0.93;;;;;;;24.28;58.04;99789.91;20743561;28;20124;-68
2021/07/05 15:33:59;;;;;;;2.13;0.85;;;;;;;24.29;57.97;99797.00;20710769;28;20697;-68
2021/07/05 15:44:02;;;;;;;2.08;0.90;;;;;;;24.28;56.73;99784.56;20660232;28;20050;-68
2021/07/05 15:54:04;;;;;;;2.03;0.80;;;;;;;24.53;55.42;99778.06;20658667;28;20058;-68
2021/07/05 16:04:09;;;;;;;5.88;1.00;;;;;;;24.17;56.79;99771.22;20693741;28;20049;-68
2021/07/05 16:14:10;;;;;;;3.25;1.08;;;;;;;24.53;55.81;99759.34;20740951;28;20053;-68
2021/07/05 16:24:13;;;;;;;12.07;3.80;;;;;;;24.65;53.31;99762.81;20739453;28;20100;-68
2021/07/05 16:34:14;;;;;;;4.25;1.63;;;;;;;24.07;54.88;99764.94;20738893;28;20042;-68
2021/07/05 16:44:16;;;;;;;2.90;1.20;;;;;;;24.11;55.45;99766.41;20737889;28;20042;-68
2021/07/05 16:54:18;;;;;;;3.08;0.77;;;;;;;24.92;52.20;99756.94;20736549;28;20054;-67
2021/07/05 17:04:20;;;;;;;2.90;0.98;;;;;;;25.04;51.79;99771.09;20702127;28;20393;-68
2021/07/05 17:14:22;;;;;;;1.98;1.02;;;;;;;24.17;53.73;99771.22;20655666;28;20047;-67
2021/07/05 17:24:24;;;;;;;2.50;1.00;;;;;;;23.98;54.65;99746.97;20654849;28;20050;-68
2021/07/05 17:34:26;;;;;;;2.65;0.90;;;;;;;23.96;54.44;99765.81;20685268;28;20100;-68
2021/07/05 17:44:28;;;;;;;2.35;1.20;;;;;;;23.87;55.00;99765.72;20734891;28;20046;-67
2021/07/05 17:54:30;;;;;;;2.08;0.98;;;;;;;24.01;55.26;99768.13;20730068;28;20042;-68
2021/07/05 18:04:31;;;;;;;2.53;0.90;;;;;;;24.43;53.65;99757.53;20742332;28;20161;-68
2021/07/05 18:14:35;;;;;;;6.30;1.40;;;;;;;24.04;55.22;99757.16;20747628;28;20045;-68
2021/07/05 18:24:37;;;;;;;3.30;1.20;;;;;;;23.65;56.66;99764.75;20748102;28;20631;-68
2021/07/05 18:34:39;;;;;;;2.50;1.10;;;;;;;23.26;57.96;99771.44;20708193;28;20093;-68
2021/07/05 18:44:41;;;;;;;2.05;1.00;;;;;;;23.07;59.27;99784.50;20662624;28;20054;-68
2021/07/05 18:54:44;;;;;;;3.72;1.38;;;;;;;22.75;60.23;99796.66;20662785;28;20047;-68
2021/07/05 19:04:45;;;;;;;3.20;1.77;;;;;;;22.37;61.66;99793.34;20654508;28;20110;-68
2021/07/05 19:14:47;;;;;;;5.28;1.58;;;;;;;22.04;63.31;99792.19;20660012;28;20089;-68
2021/07/05 19:24:48;;;;;;;2.83;1.27;;;;;;;21.68;64.98;99796.53;20660321;28;20093;-68
2021/07/05 19:34:50;;;;;;;2.67;1.33;;;;;;;21.41;66.51;99803.78;20659117;28;20046;-68
2021/07/05 19:44:52;;;;;;;3.55;1.45;;;;;;;21.24;67.46;99811.13;20660602;28;20046;-68
2021/07/05 19:54:54;;;;;;;4.30;2.33;;;;;;;21.06;67.00;99825.69;20656563;28;20050;-68
2021/07/05 20:04:55;;;;;;;3.03;1.50;;;;;;;20.70;70.42;99818.41;20657104;28;20077;-67
2021/07/05 20:14:57;;;;;;;5.97;2.35;;;;;;;20.50;70.13;99819.72;20667039;28;20318;-68
2021/07/05 20:24:58;;;;;;;5.03;1.73;;;;;;;20.33;71.77;99822.59;20647417;28;20412;-68
2021/07/05 20:35:00;;;;;;;5.85;2.10;;;;;;;20.29;70.37;99827.25;20672240;28;20045;-68
2021/07/05 20:45:13;;;;;;;5.55;2.25;;;;;;;20.07;70.98;99825.13;20738880;28;20054;-68
2021/07/05 20:55:16;;;;;;;6.45;2.05;;;;;;;19.89;72.15;99842.28;20738977;28;20103;-68
2021/07/05 21:05:18;;;;;;;5.15;2.03;;;;;;;19.76;72.10;99851.94;20688561;28;20038;-68
2021/07/05 21:15:20;;;;;;;4.70;2.00;;;;;;;19.70;72.87;99848.72;20590255;28;20046;-68
2021/07/05 21:25:22;;;;;;;3.10;1.65;;;;;;;19.61;72.67;99844.00;20578061;28;20046;-69
2021/07/05 21:35:24;;;;;;;5.28;1.70;;;;;;;19.38;74.72;99836.53;20576067;28;20050;-68
2021/07/05 21:45:26;;;;;;;4.25;2.20;;;;;;;19.18;74.79;99833.31;20576919;28;20074;-68
2021/07/05 21:55:28;;;;;;;5.88;2.15;;;;;;;19.03;75.64;99830.72;20577443;28;20097;-68
2021/07/05 22:05:30;;;;;;;8.25;2.50;;;;;;;18.84;75.73;99830.97;20610220;28;20046;-68
2021/07/05 22:15:32;;;;;;;5.68;1.80;;;;;;;18.55;77.31;99804.31;20655094;28;20287;-68
2021/07/05 22:25:35;;;;;;;4.50;1.80;;;;;;;18.34;77.25;99786.97;20655323;28;20468;-68
2021/07/05 22:35:36;;;;;;;4.93;2.00;;;;;;;18.17;78.28;99785.31;20653736;28;20053;-67
2021/07/05 22:45:38;;;;;;;3.95;1.80;;;;;;;17.81;80.79;99781.13;20656169;28;20042;-68
2021/07/05 22:55:40;;;;;;;3.30;1.80;;;;;;;17.77;80.25;99768.13;20668502;28;20046;-69
2021/07/05 23:05:42;;;;;;;4.65;2.17;;;;;;;17.46;81.51;99769.78;20667185;28;20085;-69
2021/07/05 23:15:44;;;;;;;7.20;2.03;;;;;;;17.37;81.51;99765.00;20666139;28;20123;-69
2021/07/05 23:25:48;;;;;;;3.72;2.13;;;;;;;17.16;81.59;99769.66;20665553;28;20042;-69
2021/07/05 23:35:49;;;;;;;4.63;2.28;;;;;;;17.03;81.80;99750.91;20664350;28;20050;-69
2021/07/05 23:45:51;;;;;;;6.50;2.10;;;;;;;16.74;82.74;99748.94;20664281;28;20543;-69
2021/07/05 23:55:53;;;;;;;5.68;2.20;;;;;;;16.69;82.32;99757.06;20662430;28;20121;-69
